City Of Vicksburg — WDC2660 — position and weather

sailwx.info

Track history (hours):
 
Tides and Currents Weather Stations Pressure Air Temp Water Temp Dewpoint Dewpoint Depression Visibility Wind Speed Wind Dir Waves Ship Positions

City Of Vicksburg

Owner: Kirby Inland Marine LP, Houston, TX. More information available from US FCC via Universal Licensing System and Coast Guard Vessel Documentation Center.

Last reported at 2017-Mar-20 18:27 UTC. Time now 2017-Mar-23 08:21 UTC.
Position N 31°59' W 091°06'.

Length 229 m; draft 3 m.

Type: . MMSI: 366996120.

Date/timePositionNaut miles runAvg speedWind from/ knotsBaromVisibWave heightAir tempDewpointWater temp
2017-Mar-20 18:27N 31°59' W 091°06'6 7.1
2017-Mar-20 17:33N 32°06' W 091°06'5 5.2
2017-Mar-20 16:33N 32°08' W 091°00'8 8.5
2017-Mar-20 15:33N 32°16' W 090°57'5 4.6
2017-Mar-20 14:33N 32°21' W 090°56'6 6.4
2017-Mar-20 13:33N 32°26' W 091°01'7 7.1
2017-Mar-20 12:33N 32°31' W 091°06'8 8.0
2017-Mar-20 11:33N 32°39' W 091°09'6 6.1
2017-Mar-20 10:33N 32°44' W 091°05'7 6.3
2017-Mar-20 09:31N 32°50' W 091°09'  
Track history (hours):
 
Tides and Currents Weather Stations Pressure Air Temp Water Temp Dewpoint Dewpoint Depression Visibility Wind Speed Wind Dir Waves Ship Positions

City Of Vicksburg

Owner: Kirby Inland Marine LP, Houston, TX. More information available from US FCC via Universal Licensing System and Coast Guard Vessel Documentation Center.

Last reported at 2017-Mar-20 18:27 UTC. Time now 2017-Mar-23 08:21 UTC.
Position N 31°59' W 091°06'.

Length 229 m; draft 3 m.

Type: . MMSI: 366996120.

Date/timePositionNaut miles runAvg speedWind from/ knotsBaromVisibWave heightAir tempDewpointWater temp
2017-Mar-20 18:27N 31°59' W 091°06'6 7.1
2017-Mar-20 17:33N 32°06' W 091°06'5 5.2
2017-Mar-20 16:33N 32°08' W 091°00'8 8.5
2017-Mar-20 15:33N 32°16' W 090°57'5 4.6
2017-Mar-20 14:33N 32°21' W 090°56'6 6.4
2017-Mar-20 13:33N 32°26' W 091°01'7 7.1
2017-Mar-20 12:33N 32°31' W 091°06'8 8.0
2017-Mar-20 11:33N 32°39' W 091°09'6 6.1
2017-Mar-20 10:33N 32°44' W 091°05'7 6.3
2017-Mar-20 09:31N 32°50' W 091°09'  

Dump ship's entire track history